Time;durP1;ratioP1;P1;durP2;ratioP2;P2;SDS_P1;SDS_P2;PMS_P1;PMS_P2;Temp;Humidity;BMP_temperature;BMP_pressure;BME280_temperature;BME280_humidity;BME280_pressure;Samples;Min_cycle;Max_cycle;Signal;HPM_P1;HPM_P2
2023/12/11 00:02:09;;;;;;;16.30;9.85;;;;;;;;;;5075233;28;20062;-47
2023/12/11 00:04:34;;;;;;;17.95;8.82;;;;;;;;;;5081799;28;20031;-45
2023/12/11 00:07:00;;;;;;;13.57;8.43;;;;;;;;;;5083687;28;20434;-47
2023/12/11 00:09:25;;;;;;;14.07;8.95;;;;;;;;;;5073482;28;20033;-45
2023/12/11 00:11:50;;;;;;;15.68;10.00;;;;;;;;;;5075021;28;20094;-45
2023/12/11 00:14:16;;;;;;;15.93;9.43;;;;;;;;;;5074266;28;20495;-45
2023/12/11 00:16:43;;;;;;;16.00;9.48;;;;;;;;;;5078733;28;20050;-47
2023/12/11 00:19:09;;;;;;;17.13;10.85;;;;;;;;;;5076354;28;20745;-48
2023/12/11 00:21:35;;;;;;;14.20;10.10;;;;;;;;;;5076191;28;20419;-47
2023/12/11 00:24:00;;;;;;;19.70;10.45;;;;;;;;;;5074327;28;20159;-49
2023/12/11 00:26:25;;;;;;;19.15;11.45;;;;;;;;;;5075254;28;20036;-46
2023/12/11 00:28:51;;;;;;;19.08;11.60;;;;;;;;;;5066383;28;20087;-48
2023/12/11 00:31:16;;;;;;;21.02;12.05;;;;;;;;;;5074284;28;20496;-48
2023/12/11 00:33:42;;;;;;;19.35;8.88;;;;;;;;;;5073623;28;20078;-46
2023/12/11 00:36:08;;;;;;;17.65;10.20;;;;;;;;;;5076085;28;20036;-48
2023/12/11 00:38:33;;;;;;;18.17;10.52;;;;;;;;;;5074921;28;20035;-49
2023/12/11 00:40:58;;;;;;;16.33;9.63;;;;;;;;;;5073182;28;20028;-48
2023/12/11 00:43:24;;;;;;;17.73;9.75;;;;;;;;;;5090311;28;20036;-47
2023/12/11 00:45:49;;;;;;;19.05;9.63;;;;;;;;;;5077196;28;20025;-45
2023/12/11 00:48:14;;;;;;;18.67;10.43;;;;;;;;;;5073559;28;20033;-46
2023/12/11 00:50:40;;;;;;;20.38;9.88;;;;;;;;;;5075954;28;20127;-46
2023/12/11 00:53:05;;;;;;;18.50;11.05;;;;;;;;;;5081087;28;20044;-47
2023/12/11 00:55:31;;;;;;;16.95;10.60;;;;;;;;;;5076550;28;20017;-49
2023/12/11 00:57:56;;;;;;;18.75;9.85;;;;;;;;;;5074443;28;21022;-48
2023/12/11 01:00:21;;;;;;;18.08;11.13;;;;;;;;;;5074661;28;20135;-48
2023/12/11 01:02:47;;;;;;;22.95;9.90;;;;;;;;;;5074764;28;20542;-48
2023/12/11 01:05:12;;;;;;;19.20;10.18;;;;;;;;;;5076196;28;20048;-48
2023/12/11 01:07:38;;;;;;;15.18;8.73;;;;;;;;;;5073971;28;20370;-47
2023/12/11 01:10:04;;;;;;;16.58;9.45;;;;;;;;;;5071801;28;20458;-50
2023/12/11 01:12:29;;;;;;;18.13;10.95;;;;;;;;;;5075852;28;20035;-50
2023/12/11 01:14:55;;;;;;;16.77;9.38;;;;;;;;;;5073843;28;20044;-46
2023/12/11 01:17:20;;;;;;;16.42;9.27;;;;;;;;;;5070129;28;20025;-48
2023/12/11 01:19:46;;;;;;;13.80;9.35;;;;;;;;;;5073599;28;20036;-49
2023/12/11 01:22:11;;;;;;;13.05;8.63;;;;;;;;;;5073727;28;20380;-48
2023/12/11 01:24:37;;;;;;;10.38;7.05;;;;;;;;;;5071440;28;20397;-46
2023/12/11 01:27:03;;;;;;;15.07;6.85;;;;;;;;;;5082302;28;20047;-47
2023/12/11 01:29:28;;;;;;;14.80;7.75;;;;;;;;;;5072299;28;20043;-45
2023/12/11 01:31:54;;;;;;;11.35;7.50;;;;;;;;;;5075958;28;20021;-47
2023/12/11 01:34:19;;;;;;;14.80;7.35;;;;;;;;;;5073427;28;20128;-46
2023/12/11 01:36:44;;;;;;;12.35;6.10;;;;;;;;;;5074342;28;20027;-48
2023/12/11 01:39:10;;;;;;;16.73;7.18;;;;;;;;;;5071985;28;20041;-48
2023/12/11 01:41:36;;;;;;;13.40;7.00;;;;;;;;;;5074070;28;20066;-48
2023/12/11 01:44:01;;;;;;;16.30;7.95;;;;;;;;;;5072508;28;20066;-48
2023/12/11 01:46:27;;;;;;;10.93;6.22;;;;;;;;;;5075000;28;20032;-47
2023/12/11 01:48:53;;;;;;;13.48;7.47;;;;;;;;;;5073448;28;20029;-47
2023/12/11 01:51:18;;;;;;;12.85;6.18;;;;;;;;;;5075296;28;20086;-46
2023/12/11 01:53:45;;;;;;;12.90;5.82;;;;;;;;;;5074258;28;20033;-47
2023/12/11 01:56:11;;;;;;;12.43;6.25;;;;;;;;;;5075265;28;20557;-46
2023/12/11 01:58:37;;;;;;;11.23;5.70;;;;;;;;;;5072480;28;20298;-45
2023/12/11 02:01:03;;;;;;;12.85;6.22;;;;;;;;;;5079718;28;20029;-46
2023/12/11 02:03:28;;;;;;;11.52;4.90;;;;;;;;;;5059022;28;20617;-46
2023/12/11 02:05:54;;;;;;;12.57;5.90;;;;;;;;;;5076803;28;20119;-46
2023/12/11 02:08:19;;;;;;;9.13;5.40;;;;;;;;;;5076731;28;20029;-47
2023/12/11 02:10:45;;;;;;;13.50;4.80;;;;;;;;;;5094624;28;20033;-48
2023/12/11 02:13:11;;;;;;;13.27;6.45;;;;;;;;;;5076560;28;20041;-49
2023/12/11 02:15:40;;;;;;;9.63;5.30;;;;;;;;;;5076803;28;20390;-47
2023/12/11 02:18:08;;;;;;;13.82;5.82;;;;;;;;;;5074815;28;20037;-46
2023/12/11 02:20:34;;;;;;;10.68;5.40;;;;;;;;;;5076950;28;20032;-48
2023/12/11 02:23:03;;;;;;;13.48;5.75;;;;;;;;;;5076998;28;20036;-47
2023/12/11 02:25:30;;;;;;;11.57;4.68;;;;;;;;;;5061919;28;20112;-44
2023/12/11 02:27:57;;;;;;;11.02;5.43;;;;;;;;;;5076280;28;20028;-46
2023/12/11 02:30:22;;;;;;;9.88;5.03;;;;;;;;;;5071810;28;20029;-45
2023/12/11 02:32:51;;;;;;;10.80;4.45;;;;;;;;;;5077260;28;20035;-46
2023/12/11 02:35:16;;;;;;;9.60;5.78;;;;;;;;;;5078942;28;20035;-49
2023/12/11 02:37:42;;;;;;;11.90;5.82;;;;;;;;;;5076287;28;20024;-48
2023/12/11 02:40:08;;;;;;;11.45;4.60;;;;;;;;;;5076294;28;20071;-47
2023/12/11 02:42:33;;;;;;;8.63;4.78;;;;;;;;;;5078243;28;20030;-44
2023/12/11 02:44:58;;;;;;;10.77;6.32;;;;;;;;;;5083323;28;20044;-49
2023/12/11 02:47:24;;;;;;;11.88;5.38;;;;;;;;;;5079027;28;20035;-47
2023/12/11 02:49:49;;;;;;;14.60;5.10;;;;;;;;;;5075991;28;20032;-50
2023/12/11 02:52:14;;;;;;;14.15;5.05;;;;;;;;;;5076290;28;20047;-49
2023/12/11 02:54:40;;;;;;;10.35;5.50;;;;;;;;;;5075097;28;20131;-48
2023/12/11 02:57:05;;;;;;;11.90;6.47;;;;;;;;;;5075094;28;20028;-48
2023/12/11 02:59:31;;;;;;;11.20;7.30;;;;;;;;;;5078196;28;20044;-48
2023/12/11 03:01:56;;;;;;;14.18;7.05;;;;;;;;;;5079142;28;20110;-48
2023/12/11 03:04:21;;;;;;;9.48;6.25;;;;;;;;;;5074238;28;20021;-49
2023/12/11 03:06:47;;;;;;;10.98;5.90;;;;;;;;;;5075385;28;20382;-47
2023/12/11 03:09:12;;;;;;;10.40;5.47;;;;;;;;;;5077205;28;20575;-45
2023/12/11 03:11:37;;;;;;;13.65;5.60;;;;;;;;;;5072900;28;20028;-46
2023/12/11 03:14:03;;;;;;;12.88;7.15;;;;;;;;;;5077419;28;20124;-46
2023/12/11 03:16:28;;;;;;;13.18;7.32;;;;;;;;;;5090870;28;20025;-46
2023/12/11 03:18:53;;;;;;;11.07;5.75;;;;;;;;;;5074762;28;20036;-51
2023/12/11 03:21:19;;;;;;;15.85;6.15;;;;;;;;;;5076602;28;20059;-47
2023/12/11 03:23:44;;;;;;;9.10;5.68;;;;;;;;;;5075194;28;20045;-48
2023/12/11 03:26:10;;;;;;;7.05;4.47;;;;;;;;;;5076194;28;20025;-46
2023/12/11 03:28:35;;;;;;;10.68;4.38;;;;;;;;;;5076318;28;20040;-46
2023/12/11 03:31:00;;;;;;;8.43;5.05;;;;;;;;;;5076517;28;20115;-49
2023/12/11 03:33:26;;;;;;;10.13;3.95;;;;;;;;;;5076290;28;20041;-50
2023/12/11 03:35:51;;;;;;;8.38;4.72;;;;;;;;;;5076699;28;20363;-46
2023/12/11 03:38:16;;;;;;;9.20;3.55;;;;;;;;;;5074612;28;20039;-48
2023/12/11 03:40:42;;;;;;;6.60;3.67;;;;;;;;;;5076032;28;20059;-48
2023/12/11 03:43:07;;;;;;;9.93;4.40;;;;;;;;;;5091985;28;20466;-49
2023/12/11 03:45:32;;;;;;;10.30;5.70;;;;;;;;;;5090228;28;20234;-49
2023/12/11 03:47:58;;;;;;;8.13;3.35;;;;;;;;;;5075418;28;20039;-46
2023/12/11 03:50:24;;;;;;;7.32;4.05;;;;;;;;;;5077901;28;20464;-52
2023/12/11 03:52:49;;;;;;;5.97;3.63;;;;;;;;;;5078817;28;20036;-46
2023/12/11 03:55:14;;;;;;;9.98;3.55;;;;;;;;;;5079467;28;20638;-47
2023/12/11 03:57:40;;;;;;;6.07;3.45;;;;;;;;;;5073532;28;20470;-46
2023/12/11 04:00:06;;;;;;;6.80;3.00;;;;;;;;;;5072691;28;20383;-46
2023/12/11 04:02:31;;;;;;;9.48;3.22;;;;;;;;;;5076605;28;20032;-50
2023/12/11 04:04:57;;;;;;;4.40;2.67;;;;;;;;;;5076712;28;20049;-46
2023/12/11 04:07:22;;;;;;;7.93;3.72;;;;;;;;;;5078527;28;20099;-47
2023/12/11 04:09:47;;;;;;;12.38;3.38;;;;;;;;;;5079272;28;20086;-46
2023/12/11 04:12:13;;;;;;;10.68;3.72;;;;;;;;;;5075154;28;20043;-46
2023/12/11 04:14:38;;;;;;;8.27;3.65;;;;;;;;;;5074589;28;20048;-47
2023/12/11 04:17:03;;;;;;;6.30;3.78;;;;;;;;;;5074640;28;20099;-44
2023/12/11 04:19:29;;;;;;;7.43;3.40;;;;;;;;;;5076493;28;20036;-45
2023/12/11 04:21:54;;;;;;;6.25;3.97;;;;;;;;;;5077107;28;20024;-48
2023/12/11 04:24:20;;;;;;;10.63;3.85;;;;;;;;;;5077085;28;20098;-46
2023/12/11 04:26:45;;;;;;;9.70;4.22;;;;;;;;;;5086828;28;20370;-47
2023/12/11 04:29:11;;;;;;;7.18;5.57;;;;;;;;;;5077511;28;20402;-46
2023/12/11 04:31:37;;;;;;;10.98;4.57;;;;;;;;;;5071662;28;20024;-45
2023/12/11 04:34:03;;;;;;;10.77;3.88;;;;;;;;;;5089207;28;20525;-45
2023/12/11 04:36:28;;;;;;;8.57;5.40;;;;;;;;;;5074903;28;20530;-45
2023/12/11 04:38:53;;;;;;;7.90;3.10;;;;;;;;;;5072868;28;20634;-48
2023/12/11 04:41:19;;;;;;;7.93;3.20;;;;;;;;;;5076734;28;20385;-45
2023/12/11 04:43:44;;;;;;;11.13;4.45;;;;;;;;;;5080979;28;20568;-48
2023/12/11 04:46:09;;;;;;;9.40;4.05;;;;;;;;;;5071993;28;20093;-47
2023/12/11 04:48:35;;;;;;;6.68;3.20;;;;;;;;;;5056597;28;20036;-49
2023/12/11 04:51:00;;;;;;;8.15;3.90;;;;;;;;;;5075451;28;20437;-48
2023/12/11 04:53:26;;;;;;;7.93;2.53;;;;;;;;;;5075177;28;20171;-48
2023/12/11 04:55:51;;;;;;;8.40;3.72;;;;;;;;;;5090664;28;20029;-47
2023/12/11 04:58:16;;;;;;;7.47;3.55;;;;;;;;;;5078248;28;20040;-47
2023/12/11 05:00:42;;;;;;;8.30;3.65;;;;;;;;;;5071343;28;20024;-47
2023/12/11 05:03:07;;;;;;;7.18;3.42;;;;;;;;;;5074170;28;20197;-51
2023/12/11 05:05:34;;;;;;;8.25;4.88;;;;;;;;;;5086974;28;20366;-48
2023/12/11 05:07:59;;;;;;;8.07;3.38;;;;;;;;;;5075249;28;20562;-49
2023/12/11 05:10:25;;;;;;;9.27;4.50;;;;;;;;;;5073028;28;20079;-48
2023/12/11 05:12:50;;;;;;;8.43;3.38;;;;;;;;;;5056040;28;20111;-47
2023/12/11 05:15:16;;;;;;;8.70;4.05;;;;;;;;;;5074950;28;20120;-47
2023/12/11 05:17:41;;;;;;;6.80;3.92;;;;;;;;;;5072905;28;20024;-48
2023/12/11 05:20:07;;;;;;;6.03;2.58;;;;;;;;;;5062105;28;20035;-47
2023/12/11 05:22:32;;;;;;;5.10;3.08;;;;;;;;;;5072458;28;20028;-48
2023/12/11 05:24:58;;;;;;;9.27;3.03;;;;;;;;;;5072486;28;20036;-48
2023/12/11 05:27:23;;;;;;;11.93;3.50;;;;;;;;;;5072863;28;20028;-47
2023/12/11 05:29:49;;;;;;;6.65;2.78;;;;;;;;;;5074472;28;20041;-48
2023/12/11 05:32:14;;;;;;;8.38;3.20;;;;;;;;;;5074816;28;20032;-50
2023/12/11 05:34:40;;;;;;;6.95;3.15;;;;;;;;;;5075210;28;20041;-45
2023/12/11 05:37:05;;;;;;;6.85;3.50;;;;;;;;;;5075762;28;20081;-48
2023/12/11 05:39:31;;;;;;;6.75;3.05;;;;;;;;;;5068416;28;20034;-46
2023/12/11 05:41:56;;;;;;;6.65;3.47;;;;;;;;;;5081235;28;20042;-50
2023/12/11 05:44:21;;;;;;;7.93;3.22;;;;;;;;;;5076939;28;20040;-47
2023/12/11 05:46:47;;;;;;;7.68;3.65;;;;;;;;;;5081306;28;20059;-45
2023/12/11 05:49:12;;;;;;;11.82;4.00;;;;;;;;;;5076041;28;20445;-47
2023/12/11 05:51:38;;;;;;;8.27;2.90;;;;;;;;;;5078204;28;20052;-49
2023/12/11 05:54:03;;;;;;;11.88;4.32;;;;;;;;;;5080581;28;20064;-44
2023/12/11 05:56:30;;;;;;;11.73;4.47;;;;;;;;;;5078789;28;20029;-45
2023/12/11 05:58:55;;;;;;;16.75;6.45;;;;;;;;;;5076921;28;20368;-49
2023/12/11 06:01:21;;;;;;;10.60;4.20;;;;;;;;;;5069310;28;20034;-50
2023/12/11 06:03:46;;;;;;;9.65;3.88;;;;;;;;;;5091178;28;20063;-44
2023/12/11 06:06:15;;;;;;;10.25;6.70;;;;;;;;;;5076429;28;20103;-47
2023/12/11 06:08:41;;;;;;;8.70;3.25;;;;;;;;;;5071625;28;20037;-46
2023/12/11 06:11:06;;;;;;;8.40;4.05;;;;;;;;;;5053415;28;20119;-49
2023/12/11 06:13:32;;;;;;;6.72;2.72;;;;;;;;;;5075465;28;20040;-47
2023/12/11 06:15:57;;;;;;;11.88;3.97;;;;;;;;;;5078023;28;20092;-46
2023/12/11 06:18:23;;;;;;;8.60;4.80;;;;;;;;;;5072273;28;20049;-51
2023/12/11 06:20:48;;;;;;;16.83;7.78;;;;;;;;;;5076924;28;20116;-45
2023/12/11 06:23:13;;;;;;;22.92;12.13;;;;;;;;;;5075151;28;20448;-49
2023/12/11 06:25:39;;;;;;;21.95;10.50;;;;;;;;;;5073095;28;20462;-50
2023/12/11 06:28:04;;;;;;;16.23;8.55;;;;;;;;;;5070748;28;20062;-45
2023/12/11 06:30:29;;;;;;;14.55;6.78;;;;;;;;;;5073276;28;20020;-52
2023/12/11 06:32:55;;;;;;;9.30;5.80;;;;;;;;;;5074263;28;20082;-49
2023/12/11 06:35:20;;;;;;;10.15;5.75;;;;;;;;;;5072058;28;20103;-47
2023/12/11 06:37:45;;;;;;;8.73;5.03;;;;;;;;;;5068820;28;20024;-46
2023/12/11 06:40:11;;;;;;;8.50;5.15;;;;;;;;;;5070051;28;20023;-47
2023/12/11 06:42:37;;;;;;;10.05;5.45;;;;;;;;;;5069332;28;20028;-48
2023/12/11 06:45:05;;;;;;;11.98;5.00;;;;;;;;;;5061386;28;20041;-46
2023/12/11 06:47:30;;;;;;;10.48;4.30;;;;;;;;;;5067802;28;20029;-48
2023/12/11 06:49:56;;;;;;;9.30;5.63;;;;;;;;;;5065258;28;20172;-51
2023/12/11 06:52:21;;;;;;;9.05;5.63;;;;;;;;;;5086414;28;20076;-46
2023/12/11 06:54:47;;;;;;;8.88;4.00;;;;;;;;;;5063849;28;20491;-46
2023/12/11 06:57:12;;;;;;;8.23;4.57;;;;;;;;;;5069032;28;20031;-48
2023/12/11 06:59:37;;;;;;;6.47;4.47;;;;;;;;;;5076305;28;20117;-46
2023/12/11 07:02:04;;;;;;;8.90;4.18;;;;;;;;;;5070441;28;20024;-47
2023/12/11 07:04:29;;;;;;;9.40;4.88;;;;;;;;;;5077148;28;20052;-48
2023/12/11 07:06:55;;;;;;;10.32;4.95;;;;;;;;;;5077568;28;20473;-48
2023/12/11 07:09:20;;;;;;;5.32;3.90;;;;;;;;;;5073603;28;20036;-49
2023/12/11 07:11:46;;;;;;;12.15;5.38;;;;;;;;;;5076225;28;20489;-45
2023/12/11 07:14:11;;;;;;;7.60;4.97;;;;;;;;;;5072840;28;20397;-49
2023/12/11 07:16:37;;;;;;;6.57;3.80;;;;;;;;;;5073758;28;20428;-48
2023/12/11 07:19:04;;;;;;;7.63;5.05;;;;;;;;;;5072396;28;20510;-49
2023/12/11 07:21:29;;;;;;;8.80;6.25;;;;;;;;;;5072447;28;20103;-47
2023/12/11 07:23:55;;;;;;;11.90;5.50;;;;;;;;;;5070767;28;20117;-48
2023/12/11 07:26:20;;;;;;;10.65;4.72;;;;;;;;;;5075659;28;20103;-46
2023/12/11 07:28:45;;;;;;;12.05;6.63;;;;;;;;;;5081613;28;20051;-46
2023/12/11 07:31:11;;;;;;;11.07;6.80;;;;;;;;;;5072738;28;20031;-47
2023/12/11 07:33:36;;;;;;;8.82;4.97;;;;;;;;;;5070383;28;20040;-46
2023/12/11 07:36:03;;;;;;;7.05;5.43;;;;;;;;;;5069500;28;20107;-46
2023/12/11 07:38:30;;;;;;;6.47;3.95;;;;;;;;;;5075807;28;20436;-47
2023/12/11 07:40:56;;;;;;;6.72;4.25;;;;;;;;;;5091391;28;20020;-44
2023/12/11 07:43:21;;;;;;;7.03;3.38;;;;;;;;;;5074748;28;20032;-46
2023/12/11 07:45:47;;;;;;;9.05;3.63;;;;;;;;;;5080033;28;20055;-48
2023/12/11 07:48:12;;;;;;;6.40;3.65;;;;;;;;;;5074634;28;20072;-46
2023/12/11 07:50:39;;;;;;;7.60;4.43;;;;;;;;;;5070680;28;20064;-46
2023/12/11 07:53:04;;;;;;;7.45;4.20;;;;;;;;;;5071056;28;20040;-47
2023/12/11 07:55:30;;;;;;;7.82;4.22;;;;;;;;;;5083020;28;20028;-46
2023/12/11 07:57:55;;;;;;;6.82;4.18;;;;;;;;;;5071839;28;20495;-46
2023/12/11 08:00:21;;;;;;;10.95;4.55;;;;;;;;;;5071333;28;20056;-46
2023/12/11 08:02:46;;;;;;;8.25;3.90;;;;;;;;;;5076470;28;20024;-46
2023/12/11 08:05:12;;;;;;;8.93;4.15;;;;;;;;;;5076877;28;20029;-47
2023/12/11 08:07:38;;;;;;;11.05;5.20;;;;;;;;;;5068229;28;20107;-42
2023/12/11 08:10:04;;;;;;;12.68;8.13;;;;;;;;;;5069509;28;20720;-45
2023/12/11 08:12:30;;;;;;;12.95;6.60;;;;;;;;;;5071495;28;20442;-45
2023/12/11 08:14:56;;;;;;;9.30;5.93;;;;;;;;;;5067417;28;20141;-44
2023/12/11 08:17:22;;;;;;;12.73;6.50;;;;;;;;;;5069790;28;20075;-46
2023/12/11 08:19:47;;;;;;;12.07;6.18;;;;;;;;;;5068518;28;20064;-47
2023/12/11 08:22:13;;;;;;;8.57;4.88;;;;;;;;;;5067370;28;20445;-45
2023/12/11 08:24:38;;;;;;;9.50;6.38;;;;;;;;;;5069523;28;20082;-46
2023/12/11 08:27:07;;;;;;;11.77;6.55;;;;;;;;;;5073386;28;20028;-47
2023/12/11 08:29:35;;;;;;;10.50;5.90;;;;;;;;;;5078018;28;20064;-46
2023/12/11 08:32:04;;;;;;;11.02;5.40;;;;;;;;;;5078111;28;20115;-45
2023/12/11 08:34:30;;;;;;;;;;;;;;;;;;5077134;28;20602;-47
2023/12/11 08:36:56;;;;;;;9.68;5.65;;;;;;;;;;5078849;28;19989;-45
2023/12/11 08:39:21;;;;;;;15.25;7.47;;;;;;;;;;5068621;28;20037;-46
2023/12/11 08:41:48;;;;;;;12.77;7.47;;;;;;;;;;5070811;28;20028;-44
2023/12/11 08:44:13;;;;;;;12.50;6.65;;;;;;;;;;5067627;28;20036;-48
2023/12/11 08:46:39;;;;;;;12.75;9.35;;;;;;;;;;5070989;28;20036;-44
2023/12/11 08:49:05;;;;;;;35.40;24.23;;;;;;;;;;5068724;28;20040;-48
2023/12/11 08:51:30;;;;;;;32.58;19.70;;;;;;;;;;5072587;28;20053;-46
2023/12/11 08:53:55;;;;;;;21.92;9.13;;;;;;;;;;5073354;28;20040;-45
2023/12/11 08:56:23;;;;;;;18.20;9.40;;;;;;;;;;5074226;28;20127;-47
2023/12/11 08:58:49;;;;;;;20.17;9.13;;;;;;;;;;5069850;28;20047;-46
2023/12/11 09:01:14;;;;;;;15.20;9.85;;;;;;;;;;5069244;28;20029;-46
2023/12/11 09:03:40;;;;;;;14.90;8.85;;;;;;;;;;5069463;28;20040;-48
2023/12/11 09:06:05;;;;;;;10.75;9.25;;;;;;;;;;5073925;28;20123;-47
2023/12/11 09:08:31;;;;;;;8.98;6.15;;;;;;;;;;5068702;28;20032;-49
2023/12/11 09:10:56;;;;;;;9.35;5.78;;;;;;;;;;5070249;28;20470;-49
2023/12/11 09:13:22;;;;;;;11.35;6.07;;;;;;;;;;5069645;28;20529;-49
2023/12/11 09:15:47;;;;;;;11.73;5.90;;;;;;;;;;5070543;28;20048;-46
2023/12/11 09:18:13;;;;;;;12.30;6.80;;;;;;;;;;5072458;28;20066;-48
2023/12/11 09:20:38;;;;;;;11.40;7.35;;;;;;;;;;5072898;28;20474;-48
2023/12/11 09:23:04;;;;;;;15.02;8.68;;;;;;;;;;5073607;28;20408;-48
2023/12/11 09:25:30;;;;;;;12.05;7.05;;;;;;;;;;5061630;28;20055;-48
2023/12/11 09:27:55;;;;;;;19.08;9.93;;;;;;;;;;5066693;28;20032;-48
2023/12/11 09:30:21;;;;;;;18.63;10.13;;;;;;;;;;5071352;28;20032;-48
2023/12/11 09:32:46;;;;;;;16.08;9.10;;;;;;;;;;5066813;28;20111;-51
2023/12/11 09:35:13;;;;;;;12.98;7.70;;;;;;;;;;5064995;28;20092;-47
2023/12/11 09:37:39;;;;;;;12.27;9.63;;;;;;;;;;5073462;28;20671;-46
2023/12/11 09:40:06;;;;;;;15.25;8.48;;;;;;;;;;5068909;28;20461;-50
2023/12/11 09:42:34;;;;;;;14.30;8.30;;;;;;;;;;5074664;28;20095;-45
2023/12/11 09:48:03;;;;;;;19.20;9.27;;;;;;;;;;5078808;28;20161;-48
2023/12/11 09:50:29;;;;;;;16.88;9.05;;;;;;;;;;5084966;28;20107;-50
2023/12/11 09:52:55;;;;;;;11.10;7.20;;;;;;;;;;5070754;28;20084;-51
2023/12/11 09:55:21;;;;;;;11.80;6.47;;;;;;;;;;5071607;28;20070;-46
2023/12/11 09:57:47;;;;;;;10.93;7.43;;;;;;;;;;5068779;28;20017;-48
2023/12/11 10:00:13;;;;;;;14.18;7.70;;;;;;;;;;5073333;28;20028;-49
2023/12/11 10:02:40;;;;;;;15.52;6.95;;;;;;;;;;5075591;28;20120;-46
2023/12/11 10:05:08;;;;;;;12.48;7.28;;;;;;;;;;5073295;28;20048;-45
2023/12/11 10:07:34;;;;;;;9.75;5.60;;;;;;;;;;5074337;28;20028;-46
2023/12/11 10:10:38;;;;;;;12.95;5.93;;;;;;;;;;5085512;28;20040;-47
2023/12/11 10:13:03;;;;;;;11.38;6.32;;;;;;;;;;5048115;28;20046;-48
2023/12/11 10:15:31;;;;;;;12.57;6.65;;;;;;;;;;5056233;28;20106;-48
2023/12/11 10:18:12;;;;;;;13.52;7.35;;;;;;;;;;5071324;28;20028;-46
2023/12/11 10:20:39;;;;;;;9.13;6.38;;;;;;;;;;5075024;28;20044;-46
2023/12/11 10:23:15;;;;;;;13.27;7.45;;;;;;;;;;5077169;28;20115;-47
2023/12/11 10:26:05;;;;;;;12.57;6.10;;;;;;;;;;5077074;28;20055;-46
2023/12/11 10:28:30;;;;;;;10.55;5.85;;;;;;;;;;5072695;28;20064;-47
2023/12/11 10:30:59;;;;;;;12.40;6.72;;;;;;;;;;5078305;28;20028;-47
2023/12/11 10:33:26;;;;;;;9.85;4.93;;;;;;;;;;5075521;28;20040;-47
2023/12/11 10:35:53;;;;;;;10.68;6.57;;;;;;;;;;5076162;28;20023;-46
2023/12/11 10:38:26;;;;;;;12.98;6.43;;;;;;;;;;5074735;28;20044;-46
2023/12/11 10:40:52;;;;;;;9.73;5.75;;;;;;;;;;5087607;28;20020;-47
2023/12/11 10:43:18;;;;;;;13.00;6.15;;;;;;;;;;5072981;28;20051;-47
2023/12/11 10:45:45;;;;;;;8.05;5.40;;;;;;;;;;5075820;28;20029;-49
2023/12/11 10:48:10;;;;;;;8.85;5.25;;;;;;;;;;5080008;28;20037;-48
2023/12/11 10:50:36;;;;;;;11.35;6.20;;;;;;;;;;5076742;28;20035;-46
2023/12/11 10:53:02;;;;;;;13.02;6.07;;;;;;;;;;5076500;28;20042;-46
2023/12/11 10:55:29;;;;;;;12.23;6.22;;;;;;;;;;5073637;28;20031;-48
2023/12/11 10:57:56;;;;;;;10.63;5.38;;;;;;;;;;5074654;28;20163;-47
2023/12/11 11:00:21;;;;;;;7.28;4.47;;;;;;;;;;5073844;28;20064;-46
2023/12/11 11:02:51;;;;;;;9.02;4.40;;;;;;;;;;5070741;28;20133;-47
2023/12/11 11:05:18;;;;;;;9.13;5.20;;;;;;;;;;5077583;28;20032;-48
2023/12/11 11:07:54;;;;;;;10.98;5.72;;;;;;;;;;5077077;28;20032;-45
2023/12/11 11:10:27;;;;;;;9.43;5.82;;;;;;;;;;5072279;28;20037;-47
2023/12/11 11:13:08;;;;;;;14.20;8.25;;;;;;;;;;5086607;28;20028;-47
2023/12/11 11:15:33;;;;;;;14.10;8.13;;;;;;;;;;5076347;28;20119;-47
2023/12/11 11:18:05;;;;;;;11.05;6.50;;;;;;;;;;5074377;28;20056;-48
2023/12/11 11:20:39;;;;;;;10.07;4.63;;;;;;;;;;5071497;28;20074;-48
2023/12/11 11:23:13;;;;;;;8.73;4.55;;;;;;;;;;5072920;28;20036;-52
2023/12/11 11:25:40;;;;;;;10.65;5.18;;;;;;;;;;5076342;28;20060;-46
2023/12/11 11:28:06;;;;;;;8.20;5.70;;;;;;;;;;5074075;28;20028;-46
2023/12/11 11:30:48;;;;;;;10.45;6.40;;;;;;;;;;5068986;28;20120;-51
2023/12/11 11:33:14;;;;;;;12.25;5.75;;;;;;;;;;5073012;28;20070;-47
2023/12/11 11:35:45;;;;;;;9.30;4.97;;;;;;;;;;5074393;28;20529;-48
2023/12/11 11:38:15;;;;;;;14.02;6.00;;;;;;;;;;5070251;28;20043;-47
2023/12/11 11:40:43;;;;;;;8.75;5.30;;;;;;;;;;5066140;28;20071;-45
2023/12/11 11:43:12;;;;;;;12.55;5.82;;;;;;;;;;5070040;28;20039;-50
2023/12/11 11:45:39;;;;;;;11.68;6.75;;;;;;;;;;5076542;28;20028;-48
2023/12/11 11:48:04;;;;;;;13.57;6.38;;;;;;;;;;5071433;28;20055;-49
2023/12/11 11:50:30;;;;;;;13.02;7.38;;;;;;;;;;5072597;28;20028;-50
2023/12/11 11:53:11;;;;;;;13.45;6.55;;;;;;;;;;5068441;28;20037;-48
2023/12/11 11:55:40;;;;;;;14.43;6.28;;;;;;;;;;5077887;28;20546;-46
2023/12/11 11:58:14;;;;;;;11.45;5.43;;;;;;;;;;5066500;28;20036;-50
2023/12/11 12:00:40;;;;;;;12.43;6.45;;;;;;;;;;5068669;28;20094;-49
2023/12/11 12:03:08;;;;;;;12.45;5.10;;;;;;;;;;5067896;28;20028;-48
2023/12/11 12:05:37;;;;;;;11.73;5.18;;;;;;;;;;5072306;28;20021;-49
2023/12/11 12:08:07;;;;;;;13.82;5.63;;;;;;;;;;5074992;28;20044;-49
2023/12/11 12:10:33;;;;;;;12.90;5.88;;;;;;;;;;5076498;28;20386;-50
2023/12/11 12:13:00;;;;;;;10.38;5.20;;;;;;;;;;5071657;28;20047;-49
2023/12/11 12:15:26;;;;;;;12.57;4.68;;;;;;;;;;5072397;28;20371;-49
2023/12/11 12:17:52;;;;;;;7.80;4.45;;;;;;;;;;5073940;28;20043;-47
2023/12/11 12:20:18;;;;;;;11.07;4.63;;;;;;;;;;5069352;28;20033;-45
2023/12/11 12:23:05;;;;;;;10.10;5.47;;;;;;;;;;5071991;28;20031;-48
2023/12/11 12:25:31;;;;;;;11.65;6.20;;;;;;;;;;5073143;28;20086;-48
2023/12/11 12:28:12;;;;;;;10.30;6.22;;;;;;;;;;5082194;28;20039;-47
2023/12/11 12:30:38;;;;;;;10.35;4.70;;;;;;;;;;5075332;28;20028;-47
2023/12/11 12:33:08;;;;;;;11.90;5.68;;;;;;;;;;5077433;28;20036;-45
2023/12/11 12:35:36;;;;;;;21.63;7.18;;;;;;;;;;5074561;28;20061;-45
2023/12/11 12:38:02;;;;;;;14.95;8.02;;;;;;;;;;5074692;28;20029;-49
2023/12/11 12:40:31;;;;;;;11.60;7.10;;;;;;;;;;5070248;28;20033;-45
2023/12/11 12:42:57;;;;;;;14.40;8.32;;;;;;;;;;5068153;28;20024;-46
2023/12/11 12:45:28;;;;;;;11.77;6.82;;;;;;;;;;5076171;28;20021;-45
2023/12/11 12:47:54;;;;;;;19.65;12.10;;;;;;;;;;5083329;28;20567;-47
2023/12/11 12:50:22;;;;;;;20.13;11.32;;;;;;;;;;5075206;28;20052;-46
2023/12/11 12:52:47;;;;;;;18.40;12.70;;;;;;;;;;5073392;28;20053;-46
2023/12/11 12:55:13;;;;;;;20.15;13.50;;;;;;;;;;5069678;28;20047;-52
2023/12/11 12:57:38;;;;;;;19.15;12.93;;;;;;;;;;5073076;28;20028;-46
2023/12/11 13:00:05;;;;;;;16.25;10.52;;;;;;;;;;5066498;28;20474;-45
2023/12/11 13:02:31;;;;;;;20.20;12.15;;;;;;;;;;5068179;28;20036;-46
2023/12/11 13:04:57;;;;;;;15.00;12.80;;;;;;;;;;5072091;28;20040;-46
2023/12/11 13:07:23;;;;;;;16.67;10.35;;;;;;;;;;5073958;28;20058;-45
2023/12/11 13:09:49;;;;;;;17.85;10.90;;;;;;;;;;5071045;28;20060;-46
2023/12/11 13:12:19;;;;;;;16.50;12.43;;;;;;;;;;5074626;28;20032;-45
2023/12/11 13:14:45;;;;;;;15.82;11.27;;;;;;;;;;5072678;28;20044;-46
2023/12/11 13:17:10;;;;;;;16.35;10.55;;;;;;;;;;5072795;28;20028;-48
2023/12/11 13:19:36;;;;;;;21.30;11.98;;;;;;;;;;5068968;28;20130;-46
2023/12/11 13:22:01;;;;;;;17.77;10.88;;;;;;;;;;5068184;28;20032;-45
2023/12/11 13:24:27;;;;;;;17.88;11.70;;;;;;;;;;5071922;28;20040;-47
2023/12/11 13:26:52;;;;;;;16.63;11.43;;;;;;;;;;5074003;28;20146;-45
2023/12/11 13:29:18;;;;;;;15.63;8.82;;;;;;;;;;5075503;28;20048;-48
2023/12/11 13:31:43;;;;;;;16.48;10.30;;;;;;;;;;5072481;28;20111;-47
2023/12/11 13:34:09;;;;;;;14.60;9.82;;;;;;;;;;5071771;28;20511;-45
2023/12/11 13:36:34;;;;;;;17.77;11.07;;;;;;;;;;5070279;28;20086;-48
2023/12/11 13:39:00;;;;;;;18.17;9.82;;;;;;;;;;5066550;28;20068;-46
2023/12/11 13:41:26;;;;;;;21.02;10.90;;;;;;;;;;5067857;28;20024;-48
2023/12/11 13:43:51;;;;;;;15.57;9.38;;;;;;;;;;5073697;28;20039;-45
2023/12/11 13:46:16;;;;;;;19.13;9.98;;;;;;;;;;5073659;28;20048;-46
2023/12/11 13:48:42;;;;;;;17.42;8.65;;;;;;;;;;5072508;28;20040;-47
2023/12/11 13:51:08;;;;;;;16.25;8.75;;;;;;;;;;5070289;28;20036;-49
2023/12/11 13:53:33;;;;;;;17.23;10.82;;;;;;;;;;5068751;28;20165;-48
2023/12/11 13:56:00;;;;;;;14.25;9.10;;;;;;;;;;5071400;28;20041;-52
2023/12/11 13:58:25;;;;;;;16.92;9.65;;;;;;;;;;5077950;28;20044;-53
2023/12/11 14:00:51;;;;;;;14.13;8.38;;;;;;;;;;5079521;28;21263;-50
2023/12/11 14:03:20;;;;;;;14.90;9.85;;;;;;;;;;5075806;28;20104;-53
2023/12/11 14:05:45;;;;;;;19.42;8.25;;;;;;;;;;5075439;28;20036;-49
2023/12/11 14:08:13;;;;;;;16.25;9.80;;;;;;;;;;5071570;28;20777;-48
2023/12/11 14:10:38;;;;;;;19.67;9.48;;;;;;;;;;5071985;28;20492;-46
2023/12/11 14:13:04;;;;;;;20.33;9.13;;;;;;;;;;5076508;28;20044;-46
2023/12/11 14:15:30;;;;;;;16.73;8.07;;;;;;;;;;5079252;28;20021;-46
2023/12/11 14:17:56;;;;;;;14.85;7.45;;;;;;;;;;5077905;28;20032;-46
2023/12/11 14:20:22;;;;;;;15.20;10.15;;;;;;;;;;5091852;28;20037;-48
2023/12/11 14:22:47;;;;;;;19.73;11.27;;;;;;;;;;5068649;28;20490;-46
2023/12/11 14:25:15;;;;;;;15.20;9.40;;;;;;;;;;5075899;28;20038;-46
2023/12/11 14:27:40;;;;;;;15.60;9.55;;;;;;;;;;5076103;28;20031;-44
2023/12/11 14:30:06;;;;;;;20.23;9.98;;;;;;;;;;5084618;28;20023;-43
2023/12/11 14:32:32;;;;;;;17.65;9.23;;;;;;;;;;5084422;28;20029;-45